Tiempo atmosférico en la estación meteorológica de Oroz-Betelu/Orotz-Betelu, Navarra (635 m.)



Fecha
DESCASC
Temp. máxima en grados centígrados (hora)
DESCASC
Temp. mínima en grados centígrados (hora)
DESCASC
Temp. media en grados centígrados
DESCASC
Racha de viento máxima en m/sg (hora)
DESCASC
Velocidad máxima media en intervalos de 10 minutos(hora)
DESCASC
Precipitaciones diarias en mm
DESCASC
Precipitaciones de 00:00 a 06:00 en mm
DESCASC
Precipitaciones de 06:00 a 12:00 en mm
DESCASC
Precipitaciones de 12:00 a 18:00 en mm
DESCASC
Precipitaciones de 18:00 a 24:00 en mm
DESCASC
22-11-2020 13.5 (14:30) -2.7 (08:00) 5.4 5.56 (14:50) 3.06 (14:00) 0 0 0 0 0
21-11-2020 14.2 (15:00) -0.4 (23:59) 6.9 11.11 (00:10) 6.39 (04:30) 0 0 0 0 0
20-11-2020 9.1 (13:30) 4.8 (23:20) 7 17.78 (23:10) 12.78 (22:50) 0 0 0 0 0
19-11-2020 13.7 (11:10) 4.4 (00:00) 9 13.89 (22:20) 5.83 (17:00) 0.2 0 0 0.2 0
18-11-2020 18.2 (15:20) 0.3 (00:00) 9.3 5.28 (13:30) 3.61 (14:30) 0 0 0 0 0
17-11-2020 17.1 (14:50) 2.2 (00:00) 9.7 5 (00:10) 3.61 (15:20) 0 0 0 0 0
16-11-2020 12.1 (14:50) 8 (00:00) 10.1 9.44 (15:50) 6.11 (15:50) 0.2 0.2 0 0 0
15-11-2020 15.9 (13:30) 5.6 (00:00) 10.7 9.17 (13:40) 6.11 (13:50) 8 0 0 0.2 7.8
14-11-2020 15 (13:10) 0.5 (00:00) 7.8 9.72 (14:00) 6.11 (13:30) 0 0 0 0 0
13-11-2020 16.5 (13:50) 3 (00:00) 9.8 6.39 (14:40) 5 (14:40) 0 0 0 0 0
12-11-2020 17.3 (13:30) 3.2 (00:00) 10.2 6.67 (15:10) 5 (14:00) 0 0 0 0 0
11-11-2020 16.4 (14:20) 2.2 (00:00) 9.3 10 (14:00) 5.83 (15:50) 0 0 0 0 0
10-11-2020 15.1 (14:40) 3.3 (00:00) 9.2 9.44 (12:00) 6.11 (12:00) 0.2 0 0.2 0 0
09-11-2020 15 (16:20) 4.8 (00:00) 9.9 3.33 (13:20) 1.94 (13:30) 0 0 0 0 0
08-11-2020 15.2 (16:10) 5.4 (00:00) 10.3 11.11 (13:00) 6.67 (12:30) 0 0 0 0 0
07-11-2020 17.2 (07:30) 10.6 (00:00) 13.9 19.72 (01:00) 10.28 (08:20) 39.2 0 28.8 0.8 9.6
06-11-2020 18.2 (13:50) 7.7 (00:00) 13 20.28 (23:59) 11.67 (23:30) 0 0 0 0 0
05-11-2020 15.9 (15:20) 3 (00:00) 9.4 6.39 (15:30) 3.89 (15:50) 0 0 0 0 0
04-11-2020 8 (11:50) 6.1 (00:00) 7 12.78 (05:10) 8.33 (09:50) 0 0 0 0 0
03-11-2020 12.1 (00:00) 6.8 (00:00) 9.5 10 (13:50) 6.11 (16:30) 0.2 0 0.2 0 0
02-11-2020 21 (15:50) 7.1 (00:00) 14 10.83 (18:00) 6.94 (13:40) 0 0 0 0 0
01-11-2020 20.7 (15:20) 4.2 (00:00) 12.5 6.11 (13:00) 4.44 (13:20) 0 0 0 0 0
31-10-2020 21.5 (14:50) 1.8 (00:00) 11.6 5.56 (14:30) 4.44 (14:40) 0 0 0 0 0
30-10-2020 20.2 (16:00) 2.9 (00:00) 11.6 6.11 (15:40) 4.44 (15:30) 0 0 0 0 0
29-10-2020 18.4 (15:20) 4.5 (00:00) 11.4 6.39 (12:50) 4.72 (13:00) 0 0 0 0 0
28-10-2020 16.5 (15:40) 6.8 (00:00) 11.7 6.94 (18:30) 5.28 (18:30) 0 0 0 0 0
27-10-2020 11.9 (15:40) 4.5 (00:00) 8.2 6.11 (15:10) 3.61 (13:50) 0.8 0.2 0 0 0.6

Gráficas

Temp. máximas Temp. mínimas Temp. medias Precipitaciones Rachas de viento máximas Velocidades máximas media en intervalos de 10 minutos

Datos horarios

Fecha y hora oficial Temperatura (ºC) Velocidad del viento (km/h) Dirección del viento Racha (km/h) Dirección de racha Precipitación (mm) Presión (hPa) Tendencia (hPa) Humedad (%)
2020-11-25 23:00:00 8 3 Sudeste 14 Oeste 0 -- -- 75
2020-11-25 22:00:00 9.8 4 Oeste 21 Oeste 0 -- -- 69
2020-11-25 21:00:00 10.2 6 Oeste 20 Oeste 0 -- -- 66
2020-11-25 20:00:00 10.8 6 Oeste 16 Oeste 0 -- -- 62
2020-11-25 19:00:00 10.9 3 Oeste 24 Oeste 0 -- -- 59
2020-11-25 18:00:00 11.2 7 Oeste 36 Sudoeste 0 -- -- 59
2020-11-25 17:00:00 11.7 14 Sudoeste 39 Oeste 0 -- -- 56
2020-11-25 16:00:00 11.7 16 Sudoeste 42 Sudoeste 0 -- -- 58
2020-11-25 15:00:00 12.5 15 Oeste 48 Oeste 0 -- -- 53
2020-11-25 14:00:00 13.1 25 Sudoeste 51 Oeste 0 -- -- 53
2020-11-25 13:00:00 12 27 Sudoeste 48 Sudoeste 0 -- -- 58
2020-11-25 12:00:00 11.2 18 Oeste 47 Sudoeste 0 -- -- 64
2020-11-25 11:00:00 4.8 4 Norte 15 Noroeste 0 -- -- 100
2020-11-25 10:00:00 -0.7 3 Nordeste 5 Nordeste 0 -- -- 99
2020-11-25 09:00:00 -1.5 0 Calma 6 Norte 0 -- -- 99
2020-11-25 08:00:00 -1.8 0 Calma 4 Oeste 0 -- -- 99
2020-11-25 07:00:00 -1.9 0 Calma 4 Este 0 -- -- 98
2020-11-25 06:00:00 -2 0 Calma 3 Este 0 -- -- 98
2020-11-25 05:00:00 -1.3 0 Calma 5 Norte 0 -- -- 98
2020-11-25 04:00:00 -0.9 0 Calma 3 Este 0 -- -- 98
2020-11-25 03:00:00 -0.8 0 Calma 2 Norte 0 -- -- 97
2020-11-25 02:00:00 -0.2 0 Calma 2 Este 0 -- -- 97
2020-11-25 01:00:00 0.3 0 Calma 3 Este 0 -- -- 97
2020-11-25 00:00:00 0.9 0 Calma 4 Norte 0 -- -- 97
2020-11-24 23:00:00 1.2 2 Este 4 Este 0 -- -- 96
2020-11-24 22:00:00 1.7 0 Calma 3 Este 0 -- -- 95
2020-11-24 21:00:00 2.5 2 Este 4 Este 0 -- -- 93
2020-11-24 20:00:00 3.4 0 Calma 3 Este 0 -- -- 91
2020-11-24 19:00:00 5.1 0 Calma 5 Sudoeste 0 -- -- 85
2020-11-24 18:00:00 7.8 0 Calma 14 Sudoeste 0 -- -- 76
2020-11-24 17:00:00 10.1 9 Sudoeste 18 Oeste 0 -- -- 67
2020-11-24 16:00:00 13.1 9 Oeste 21 Oeste 0 -- -- 54
2020-11-24 15:00:00 12.7 18 Oeste 26 Sudoeste 0 -- -- 53
2020-11-24 14:00:00 13.7 16 Sudoeste 22 Oeste 0 -- -- 49
2020-11-24 13:00:00 12.6 6 Sudoeste 14 Sudoeste 0 -- -- 58
2020-11-24 12:00:00 7.6 2 Sur 4 Sur 0 -- -- 84
2020-11-24 11:00:00 2.8 0 Calma 3 Sur 0 -- -- 100
2020-11-24 10:00:00 -0.9 0 Calma 0 Calma 0 -- -- 98
2020-11-24 09:00:00 -2 0 Calma 3 Nordeste 0 -- -- 98
2020-11-24 08:00:00 -2.4 0 Calma 3 Este 0 -- -- 98
2020-11-24 07:00:00 -2.2 0 Calma 3 Nordeste 0 -- -- 97
2020-11-24 06:00:00 -1.9 0 Calma 3 Este 0 -- -- 97
2020-11-24 05:00:00 -1.5 3 Este 4 Este 0 -- -- 97
2020-11-24 04:00:00 -1.1 0 Calma 5 Este 0 -- -- 96
2020-11-24 03:00:00 -0.6 2 Este 5 Este 0 -- -- 96
2020-11-24 02:00:00 -0.3 3 Este 5 Este 0 -- -- 95
2020-11-24 01:00:00 0.2 3 Este 5 Sudeste 0 -- -- 95
2020-11-24 00:00:00 0.6 2 Este 5 Este 0 -- -- 94
2020-11-23 23:00:00 1.2 2 Este 4 Este 0 -- -- 94
2020-11-23 22:00:00 1.9 2 Este 4 Este 0 -- -- 94
2020-11-23 21:00:00 2.2 0 Calma 5 Este 0 -- -- 92
2020-11-23 20:00:00 3.1 2 Este 4 Este 0 -- -- 91
2020-11-23 19:00:00 4.5 0 Calma 3 Nordeste 0 -- -- 86
2020-11-23 18:00:00 7.4 0 Calma 12 Sudoeste 0 -- -- 78
2020-11-23 17:00:00 10.1 9 Sudoeste 15 Sur 0 -- -- 64
2020-11-23 16:00:00 12.5 9 Sudoeste 21 Oeste 0 -- -- 55
2020-11-23 15:00:00 13.4 9 Sudoeste 16 Oeste 0 -- -- 54
2020-11-23 14:00:00 13.1 9 Sur 16 Sudoeste 0 -- -- 52
2020-11-23 13:00:00 10 2 Sudeste 5 Sur 0 -- -- 67
2020-11-23 12:00:00 6.7 2 Sudeste 4 Sur 0 -- -- 69
2020-11-23 11:00:00 1.2 0 Calma 3 Sudeste 0 -- -- 99
2020-11-23 10:00:00 -2.1 2 Este 4 Este 0 -- -- 98
2020-11-23 09:00:00 -2.6 0 Calma 3 Nordeste 0 -- -- 97
2020-11-23 08:00:00 -2.6 0 Calma 3 Oeste 0 -- -- 97
2020-11-23 07:00:00 -2.2 0 Calma 2 Oeste 0 -- -- 97
2020-11-23 06:00:00 -2 0 Calma 3 Noroeste 0 -- -- 96
2020-11-23 05:00:00 -1.7 0 Calma 3 Noroeste 0 -- -- 96
2020-11-23 04:00:00 -1.6 0 Calma 3 Nordeste 0 -- -- 96
2020-11-23 03:00:00 -1.2 0 Calma 5 Nordeste 0 -- -- 96
2020-11-23 02:00:00 -0.7 0 Calma 4 Este 0 -- -- 95
2020-11-23 01:00:00 -0.5 3 Este 5 Este 0 -- -- 95
2020-11-23 00:00:00 0 3 Este 4 Este 0 -- -- 95
2020-11-22 23:00:00 0.4 0 Calma 3 Este 0 -- -- 94
2020-11-22 22:00:00 1 2 Este 5 Este 0 -- -- 94
2020-11-22 21:00:00 1.5 0 Calma 2 Este 0 -- -- 92
2020-11-22 20:00:00 2.4 0 Calma 5 Este 0 -- -- 90
2020-11-22 19:00:00 3.6 0 Calma 3 Nordeste 0 -- -- 86
2020-11-22 18:00:00 6.1 0 Calma 7 Oeste 0 -- -- 79
2020-11-22 17:00:00 9.2 6 Oeste 16 Sudoeste 0 -- -- 66
2020-11-22 16:00:00 12.9 10 Sudoeste 19 Sudoeste 0 -- -- 52
2020-11-22 15:00:00 13.5 9 Sudoeste 20 Sudoeste 0 -- -- 50
2020-11-22 14:00:00 13 11 Sudoeste 17 Sur 0 -- -- 48
2020-11-22 13:00:00 11.1 3 Sudeste 6 Sudeste 0 -- -- 57
2020-11-22 12:00:00 7.2 3 Sur 5 Sur 0 -- -- 64
2020-11-22 11:00:00 2 2 Este 6 Este 0 -- -- 94
2020-11-22 10:00:00 -2.2 3 Este 4 Este 0 -- -- 96
2020-11-22 09:00:00 -2.5 3 Este 5 Sudeste 0 -- -- 96
2020-11-22 08:00:00 -2.7 0 Calma 6 Este 0 -- -- 96
2020-11-22 07:00:00 -2.5 0 Calma 6 Este 0 -- -- 96
2020-11-22 06:00:00 -2.2 2 Este 7 Este 0 -- -- 95
2020-11-22 05:00:00 -2.3 0 Calma 7 Este 0 -- -- 96
2020-11-22 04:00:00 -2.1 0 Calma 5 Este 0 -- -- 95
2020-11-22 03:00:00 -1.8 0 Calma 4 Este 0 -- -- 95
2020-11-22 02:00:00 -1.2 3 Este 6 Este 0 -- -- 94
2020-11-22 01:00:00 -1 3 Este 6 Sudeste 0 -- -- 93
2020-11-22 00:00:00 -0.4 3 Este 6 Este 0 -- -- 92
2020-11-21 23:00:00 0 2 Este 6 Este 0 -- -- 92
2020-11-21 22:00:00 0.8 2 Norte 6 Este 0 -- -- 90
2020-11-21 21:00:00 1.5 0 Calma 4 Este 0 -- -- 90
2020-11-21 20:00:00 2.3 0 Calma 4 Este 0 -- -- 87
2020-11-21 19:00:00 4.3 0 Calma 2 Norte 0 -- -- 77
2020-11-21 18:00:00 6.3 0 Calma 8 Oeste 0 -- -- 71
2020-11-21 17:00:00 9.5 7 Oeste 15 Oeste 0 -- -- 60
2020-11-21 16:00:00 13.7 10 Sudoeste 18 Sudoeste 0 -- -- 42
2020-11-21 15:00:00 14.2 12 Sudoeste 23 Sudoeste 0 -- -- 40
2020-11-21 14:00:00 13.4 11 Sudoeste 22 Sudoeste 0 -- -- 42
2020-11-21 13:00:00 12.8 6 Sudoeste 14 Sudoeste 0 -- -- 40
2020-11-21 12:00:00 11 4 Sudoeste 11 Sur 0 -- -- 44
2020-11-21 11:00:00 8.6 7 Sudoeste 25 Sudoeste 0 -- -- 45
2020-11-21 10:00:00 7 5 Oeste 31 Sudeste 0 -- -- 45
2020-11-21 09:00:00 7.8 14 Este 30 Este 0 -- -- 26
2020-11-21 08:00:00 6.7 6 Este 20 Sudeste 0 -- -- 29
2020-11-21 07:00:00 7.6 8 Sudeste 26 Sudeste 0 -- -- 30
2020-11-21 06:00:00 7.2 13 Este 38 Este 0 -- -- 31
2020-11-21 05:00:00 7 20 Este 35 Este 0 -- -- 35
2020-11-21 04:00:00 6.4 13 Este 22 Este 0 -- -- 41
2020-11-21 03:00:00 2.8 2 Este 9 Nordeste 0 -- -- 69
2020-11-21 02:00:00 4.1 2 Nordeste 24 Sur 0 -- -- 62
2020-11-21 01:00:00 4.8 8 Oeste 40 Norte 0 -- -- 66
2020-11-21 00:00:00 4.9 25 Norte 64 Nordeste 0 -- -- 68
2020-11-20 23:00:00 4.9 44 Nordeste 62 Nordeste 0 -- -- 73
2020-11-20 22:00:00 5.1 42 Nordeste 58 Nordeste 0 -- -- 76
2020-11-20 21:00:00 5.3 25 Nordeste 36 Nordeste 0 -- -- 75
2020-11-20 20:00:00 5.6 18 Nordeste 38 Este 0 -- -- 73
2020-11-20 19:00:00 5.8 11 Nordeste 30 Nordeste 0 -- -- 73
2020-11-20 18:00:00 6.1 15 Nordeste 37 Nordeste 0 -- -- 70
2020-11-20 17:00:00 6.9 20 Nordeste 44 Nordeste 0 -- -- 65
2020-11-20 16:00:00 8 24 Nordeste 49 Norte 0 -- -- 59
2020-11-20 15:00:00 8.6 23 Nordeste 45 Nordeste 0 -- -- 55
2020-11-20 14:00:00 9.1 20 Nordeste 44 Este 0 -- -- 57
2020-11-20 13:00:00 8.9 22 Nordeste 46 Nordeste 0 -- -- 59
2020-11-20 12:00:00 8.7 22 Nordeste 49 Nordeste 0 -- -- 58
2020-11-20 11:00:00 8 18 Nordeste 42 Nordeste 0 -- -- 65
2020-11-20 10:00:00 7.1 13 Nordeste 51 Nordeste 0 -- -- 69
2020-11-20 09:00:00 7.1 17 Nordeste 47 Nordeste 0 -- -- 71
2020-11-20 08:00:00 6.9 17 Norte 33 Norte 0 -- -- 75
2020-11-20 07:00:00 7 10 Nordeste 40 Este 0 -- -- 73
2020-11-20 06:00:00 6.8 10 Nordeste 36 Norte 0 -- -- 74
2020-11-20 05:00:00 7.2 10 Norte 32 Norte 0 -- -- 71
2020-11-20 04:00:00 7.2 9 Norte 30 Norte 0 -- -- 69
2020-11-20 03:00:00 7.1 14 Nordeste 41 Nordeste 0 -- -- 70
2020-11-20 02:00:00 7 17 Nordeste 34 Este 0 -- -- 72
2020-11-20 01:00:00 7.1 19 Nordeste 35 Este 0 -- -- 70
2020-11-20 00:00:00 7.3 13 Nordeste 48 Nordeste 0 -- -- 72
2020-11-19 23:00:00 7.2 10 Nordeste 50 Nordeste 0 -- -- 76
2020-11-19 22:00:00 7.7 15 Nordeste 45 Nordeste 0 -- -- 69
2020-11-19 21:00:00 7.9 14 Nordeste 44 Norte 0 -- -- 71
2020-11-19 20:00:00 8 6 Sudeste 28 Nordeste 0 -- -- 77
2020-11-19 19:00:00 8 5 Noroeste 27 Este 0 -- -- 77
2020-11-19 18:00:00 8.2 12 Este 38 Este 0 -- -- 81
2020-11-19 17:00:00 9.6 21 Nordeste 40 Nordeste 0 -- -- 79
2020-11-19 16:00:00 10.3 16 Nordeste 32 Este 0 -- -- 83
2020-11-19 15:00:00 11.2 14 Este 27 Nordeste 0 -- -- 81
2020-11-19 14:00:00 12 15 Nordeste 30 Nordeste 0.2 -- -- 83
2020-11-19 13:00:00 12.8 15 Nordeste 22 Nordeste 0 -- -- 86
2020-11-19 12:00:00 13.2 11 Este 24 Nordeste 0 -- -- 84
2020-11-19 11:00:00 13.6 12 Nordeste 28 Nordeste 0 -- -- 84
2020-11-19 10:00:00 12.9 8 Este 26 Nordeste 0 -- -- 88
2020-11-19 09:00:00 12.9 16 Nordeste 28 Este 0 -- -- 85
2020-11-19 08:00:00 10.3 12 Este 18 Este 0 -- -- 93
2020-11-19 07:00:00 7.5 5 Este 12 Este 0 -- -- 98
2020-11-19 06:00:00 5.5 3 Este 12 Noroeste 0 -- -- 99
2020-11-19 05:00:00 4.5 0 Calma 6 Sudoeste 0 -- -- 98
2020-11-19 04:00:00 4.7 0 Calma 8 Norte 0 -- -- 98
2020-11-19 03:00:00 5.2 3 Sudeste 5 Sudeste 0 -- -- 98
2020-11-19 02:00:00 5 2 Sur 4 Sur 0 -- -- 98
2020-11-19 01:00:00 5.3 2 Sudeste 6 Este 0 -- -- 98
2020-11-19 00:00:00 5.5 3 Este 6 Este 0 -- -- 97
2020-11-18 23:00:00 5.8 3 Este 7 Nordeste 0 -- -- 97
2020-11-18 22:00:00 6.3 0 Calma 7 Nordeste 0 -- -- 96
2020-11-18 21:00:00 6.8 2 Este 4 Este 0 -- -- 95
2020-11-18 20:00:00 7.6 0 Calma 4 Nordeste 0 -- -- 94
2020-11-18 19:00:00 8.8 0 Calma 4 Este 0 -- -- 92
2020-11-18 18:00:00 10.7 0 Calma 5 Oeste 0 -- -- 86
2020-11-18 17:00:00 13.7 4 Oeste 11 Sudoeste 0 -- -- 74
2020-11-18 16:00:00 17.6 7 Sudoeste 16 Oeste 0 -- -- 62
2020-11-18 15:00:00 18 12 Sudoeste 17 Sudoeste 0 -- -- 58
2020-11-18 14:00:00 17.5 11 Sudoeste 19 Oeste 0 -- -- 58
2020-11-18 13:00:00 14.9 3 Noroeste 10 Oeste 0 -- -- 66
2020-11-18 12:00:00 11 3 Sur 7 Sur 0 -- -- 86
2020-11-18 11:00:00 6.7 0 Calma 5 Nordeste 0 -- -- 100
2020-11-18 10:00:00 1.8 3 Nordeste 6 Este 0 -- -- 100
2020-11-18 09:00:00 0.7 0 Calma 3 Nordeste 0 -- -- 99
2020-11-18 08:00:00 0.4 0 Calma 3 Nordeste 0 -- -- 99
2020-11-18 07:00:00 0.8 0 Calma 3 Nordeste 0 -- -- 98
2020-11-18 06:00:00 0.9 0 Calma 6 Este 0 -- -- 99
2020-11-18 05:00:00 0.9 0 Calma 4 Este 0 -- -- 98
2020-11-18 04:00:00 1.2 0 Calma 3 Noroeste 0 -- -- 98
2020-11-18 03:00:00 1.5 2 Este 3 Nordeste 0 -- -- 97
2020-11-18 02:00:00 1.7 0 Calma 5 Nordeste 0 -- -- 98
2020-11-18 01:00:00 2.5 2 Este 5 Este 0 -- -- 97
2020-11-18 00:00:00 2.8 2 Este 5 Este 0 -- -- 97
2020-11-17 23:00:00 3.2 0 Calma 4 Este 0 -- -- 96
2020-11-17 22:00:00 3.8 2 Este 4 Este 0 -- -- 94
2020-11-17 21:00:00 4.8 0 Calma 2 Nordeste 0 -- -- 94
2020-11-17 20:00:00 5.8 0 Calma 4 Sudeste 0 -- -- 91
2020-11-17 19:00:00 7.6 0 Calma 2 Noroeste 0 -- -- 86
2020-11-17 18:00:00 10 0 Calma 6 Sudoeste 0 -- -- 76
2020-11-17 17:00:00 13.1 0 Calma 16 Sudoeste 0 -- -- 64
2020-11-17 16:00:00 16.4 9 Sudoeste 18 Sudoeste 0 -- -- 60
2020-11-17 15:00:00 16.9 7 Oeste 13 Sudoeste 0 -- -- 57
2020-11-17 14:00:00 16.3 7 Sudoeste 14 Oeste 0 -- -- 54
2020-11-17 13:00:00 14.1 2 Sur 7 Sudoeste 0 -- -- 56
2020-11-17 12:00:00 11.9 3 Sudeste 6 Sudeste 0 -- -- 56
2020-11-17 11:00:00 7.2 3 Sudeste 5 Este 0 -- -- 84
2020-11-17 10:00:00 3.2 3 Este 6 Este 0 -- -- 97
2020-11-17 09:00:00 2.5 3 Este 5 Nordeste 0 -- -- 97
2020-11-17 08:00:00 2.2 3 Este 5 Este 0 -- -- 97
2020-11-17 07:00:00 2.4 0 Calma 3 Sudoeste 0 -- -- 96
2020-11-17 06:00:00 2.9 3 Oeste 5 Sudoeste 0 -- -- 96
2020-11-17 05:00:00 3.2 0 Calma 10 Nordeste 0 -- -- 95
2020-11-17 04:00:00 3.5 0 Calma 4 Oeste 0 -- -- 95
2020-11-17 03:00:00 4.3 0 Calma 3 Sudeste 0 -- -- 92
2020-11-17 02:00:00 5.3 0 Calma 12 Oeste 0 -- -- 88
2020-11-17 01:00:00 6.9 4 Nordeste 18 Nordeste 0 -- -- 85
2020-11-17 00:00:00 8 7 Este 27 Nordeste 0 -- -- 80
2020-11-16 23:00:00 9 18 Este 31 Este 0 -- -- 78
2020-11-16 22:00:00 9.1 19 Este 30 Este 0 -- -- 77
2020-11-16 21:00:00 8.7 8 Este 18 Nordeste 0 -- -- 79
2020-11-16 20:00:00 8.9 4 Norte 19 Nordeste 0 -- -- 79
2020-11-16 19:00:00 9.6 8 Nordeste 32 Nordeste 0 -- -- 76
2020-11-16 18:00:00 10 14 Nordeste 26 Nordeste 0 -- -- 74
2020-11-16 17:00:00 10.8 13 Nordeste 32 Nordeste 0 -- -- 68
2020-11-16 16:00:00 11.4 20 Nordeste 34 Nordeste 0 -- -- 65
2020-11-16 15:00:00 12.1 19 Nordeste 30 Nordeste 0 -- -- 62
2020-11-16 14:00:00 11.8 18 Nordeste 31 Nordeste 0 -- -- 64
2020-11-16 13:00:00 11.8 15 Nordeste 26 Nordeste 0 -- -- 67
2020-11-16 12:00:00 11.3 6 Nordeste 33 Nordeste 0 -- -- 71
2020-11-16 11:00:00 10.5 5 Este 20 Este 0 -- -- 80
2020-11-16 10:00:00 9.6 9 Nordeste 18 Nordeste 0 -- -- 88
2020-11-16 09:00:00 9.1 5 Este 16 Norte 0 -- -- 93
2020-11-16 08:00:00 9.1 9 Nordeste 16 Nordeste 0 -- -- 93
2020-11-16 07:00:00 9.4 12 Nordeste 22 Nordeste 0 -- -- 90
2020-11-16 06:00:00 9.8 12 Nordeste 28 Nordeste 0 -- -- 86
2020-11-16 05:00:00 9.8 10 Nordeste 18 Norte 0 -- -- 90
2020-11-16 04:00:00 10.2 6 Este 28 Sudeste 0 -- -- 87
2020-11-16 03:00:00 10.5 12 Este 22 Este 0 -- -- 86
2020-11-16 02:00:00 10.7 12 Este 32 Este 0 -- -- 84
2020-11-16 01:00:00 10.9 10 Nordeste 22 Este 0.2 -- -- 87
2020-11-16 00:00:00 11.2 13 Nordeste 24 Este 0.2 -- -- 88
2020-11-15 23:00:00 11.6 4 Nordeste 21 Sudeste 2.8 -- -- 92
2020-11-15 22:00:00 12 3 Norte 14 Sudeste 0 -- -- 92
2020-11-15 21:00:00 12.1 11 Este 18 Este 2.6 -- -- 95
2020-11-15 20:00:00 12.3 0 Calma 5 Este 2 -- -- 96
2020-11-15 19:00:00 12.6 3 Oeste 10 Noroeste 0.2 -- -- 94
2020-11-15 18:00:00 12.8 3 Norte 8 Noroeste 0.2 -- -- 92
2020-11-15 17:00:00 13.7 0 Calma 16 Noroeste 0 -- -- 85
2020-11-15 16:00:00 14.7 12 Oeste 19 Oeste 0 -- -- 77
2020-11-15 15:00:00 15.4 13 Oeste 25 Sudoeste 0 -- -- 72
2020-11-15 14:00:00 15.7 19 Sudoeste 33 Sudoeste 0 -- -- 68
2020-11-15 13:00:00 15.6 9 Sudoeste 31 Sudoeste 0 -- -- 70
2020-11-15 12:00:00 15 15 Oeste 27 Oeste 0 -- -- 71
2020-11-15 11:00:00 14 9 Sudoeste 27 Oeste 0 -- -- 74
2020-11-15 10:00:00 13.5 14 Oeste 24 Oeste 0 -- -- 76
2020-11-15 09:00:00 12.3 12 Oeste 27 Oeste 0 -- -- 81
2020-11-15 08:00:00 9.9 5 Noroeste 12 Oeste 0 -- -- 87
2020-11-15 07:00:00 10.4 2 Nordeste 20 Sudoeste 0 -- -- 86
2020-11-15 06:00:00 11.2 5 Sudoeste 22 Oeste 0 -- -- 83
2020-11-15 05:00:00 12.4 15 Oeste 26 Oeste 0 -- -- 78
2020-11-15 04:00:00 10.5 3 Nordeste 21 Oeste 0 -- -- 86
2020-11-15 03:00:00 11.8 15 Oeste 31 Oeste 0 -- -- 82
2020-11-15 02:00:00 8.2 3 Sur 11 Noroeste 0 -- -- 98
2020-11-15 01:00:00 6.4 3 Este 8 Norte 0 -- -- 98
2020-11-15 00:00:00 5.6 0 Calma 5 Este 0 -- -- 98
2020-11-14 23:00:00 5.4 0 Calma 8 Este 0 -- -- 97
2020-11-14 22:00:00 6.1 0 Calma 5 Norte 0 -- -- 96
2020-11-14 21:00:00 6.9 3 Este 6 Sudeste 0 -- -- 95
2020-11-14 20:00:00 8.1 3 Este 5 Oeste 0 -- -- 92
2020-11-14 19:00:00 9.8 0 Calma 17 Oeste 0 -- -- 87
2020-11-14 18:00:00 12.2 13 Noroeste 24 Sudoeste 0 -- -- 79
2020-11-14 17:00:00 13.4 8 Sudoeste 23 Oeste 0 -- -- 74
2020-11-14 16:00:00 13.7 14 Oeste 25 Oeste 0 -- -- 73
2020-11-14 15:00:00 14 15 Oeste 31 Oeste 0 -- -- 70
2020-11-14 14:00:00 14.9 18 Oeste 35 Oeste 0 -- -- 66
2020-11-14 13:00:00 14.7 11 Oeste 22 Oeste 0 -- -- 69
2020-11-14 12:00:00 10.4 6 Sur 15 Sudoeste 0 -- -- 98
2020-11-14 11:00:00 6.8 0 Calma 4 Sudeste 0 -- -- 100
2020-11-14 10:00:00 2.4 0 Calma 3 Oeste 0 -- -- 100
2020-11-14 09:00:00 1.4 0 Calma 3 Nordeste 0 -- -- 100
2020-11-14 08:00:00 0.8 0 Calma 3 Nordeste 0 -- -- 99
2020-11-14 07:00:00 0.7 0 Calma 4 Este 0 -- -- 99
2020-11-14 06:00:00 0.9 0 Calma 3 Este 0 -- -- 99
2020-11-14 05:00:00 1.2 2 Nordeste 6 Noroeste 0 -- -- 99
2020-11-14 04:00:00 1.6 0 Calma 2 Este 0 -- -- 98
2020-11-14 03:00:00 2.4 0 Calma 4 Este 0 -- -- 98
2020-11-14 02:00:00 2.6 0 Calma 4 Este 0 -- -- 98
2020-11-14 01:00:00 2.6 0 Calma 3 Este 0 -- -- 98
2020-11-14 00:00:00 3 0 Calma 4 Nordeste 0 -- -- 97
2020-11-13 23:00:00 3.7 0 Calma 5 Este 0 -- -- 97
2020-11-13 22:00:00 4.4 2 Este 4 Este 0 -- -- 96
2020-11-13 21:00:00 5.3 0 Calma 3 Norte 0 -- -- 95
2020-11-13 20:00:00 6.5 0 Calma 2 Este 0 -- -- 93
2020-11-13 19:00:00 8.1 0 Calma 2 Este 0 -- -- 90
2020-11-13 18:00:00 9.9 0 Calma 5 Oeste 0 -- -- 82
2020-11-13 17:00:00 13.3 3 Oeste 21 Oeste 0 -- -- 70
2020-11-13 16:00:00 16.2 6 Oeste 19 Oeste 0 -- -- 59
2020-11-13 15:00:00 16 12 Sudoeste 23 Oeste 0 -- -- 57
2020-11-13 14:00:00 16.5 14 Oeste 23 Oeste 0 -- -- 54
2020-11-13 13:00:00 14.3 6 Sudoeste 12 Oeste 0 -- -- 67
2020-11-13 12:00:00 11.2 0 Calma 5 Sur 0 -- -- 82
2020-11-13 11:00:00 8.3 0 Calma 4 Sudoeste 0 -- -- 100
2020-11-13 10:00:00 4.3 2 Nordeste 2 Nordeste 0 -- -- 99
2020-11-13 09:00:00 3.8 0 Calma 3 Este 0 -- -- 99
2020-11-13 08:00:00 3.2 0 Calma 5 Este 0 -- -- 99
2020-11-13 07:00:00 3.9 0 Calma 5 Este 0 -- -- 99
2020-11-13 06:00:00 4.1 2 Nordeste 4 Nordeste 0 -- -- 98
2020-11-13 05:00:00 4.3 0 Calma 4 Noroeste 0 -- -- 99
2020-11-13 04:00:00 4.2 2 Nordeste 5 Norte 0 -- -- 98
2020-11-13 03:00:00 4.3 0 Calma 3 Este 0 -- -- 98
2020-11-13 02:00:00 4.1 0 Calma 4 Noroeste 0 -- -- 98
2020-11-13 01:00:00 3.8 2 Nordeste 5 Este 0 -- -- 97
2020-11-13 00:00:00 3.6 2 Este 5 Nordeste 0 -- -- 96
2020-11-12 23:00:00 4.2 0 Calma 3 Este 0 -- -- 96
2020-11-12 22:00:00 5.1 0 Calma 4 Este 0 -- -- 95
2020-11-12 21:00:00 5.9 2 Este 5 Nordeste 0 -- -- 93
2020-11-12 20:00:00 7.2 0 Calma 3 Este 0 -- -- 91
2020-11-12 19:00:00 8.7 0 Calma 4 Oeste 0 -- -- 84
2020-11-12 18:00:00 10.9 2 Sur 12 Oeste 0 -- -- 78
2020-11-12 17:00:00 13.8 7 Oeste 20 Oeste 0 -- -- 63
2020-11-12 16:00:00 16.9 13 Oeste 24 Oeste 0 -- -- 53
2020-11-12 15:00:00 17 18 Oeste 24 Oeste 0 -- -- 54
2020-11-12 14:00:00 16.9 18 Oeste 24 Oeste 0 -- -- 59
2020-11-12 13:00:00 16.5 10 Oeste 19 Oeste 0 -- -- 61
2020-11-12 12:00:00 13.6 3 Sur 6 Sur 0 -- -- 75
2020-11-12 11:00:00 8.9 2 Sur 4 Este 0 -- -- 100
2020-11-12 10:00:00 4 3 Este 5 Este 0 -- -- 100
2020-11-12 09:00:00 3.3 3 Este 8 Este 0 -- -- 99
2020-11-12 08:00:00 3.5 2 Este 6 Nordeste 0 -- -- 99
2020-11-12 07:00:00 3.7 4 Este 5 Este 0 -- -- 98
2020-11-12 06:00:00 3.8 2 Nordeste 7 Este 0 -- -- 99
2020-11-12 05:00:00 4.4 0 Calma 5 Este 0 -- -- 98
2020-11-12 04:00:00 4.6 0 Calma 6 Este 0 -- -- 98
2020-11-12 03:00:00 5 0 Calma 5 Nordeste 0 -- -- 98
2020-11-12 02:00:00 5.4 0 Calma 4 Nordeste 0 -- -- 98
2020-11-12 01:00:00 5.7 0 Calma 4 Nordeste 0 -- -- 97
2020-11-12 00:00:00 6.4 0 Calma 5 Norte 0 -- -- 96
2020-11-11 23:00:00 6.9 0 Calma 5 Sudeste 0 -- -- 96
2020-11-11 22:00:00 7.3 0 Calma 6 Sudeste 0 -- -- 95
2020-11-11 21:00:00 7.6 0 Calma 7 Este 0 -- -- 94
2020-11-11 20:00:00 8.1 0 Calma 7 Este 0 -- -- 92
2020-11-11 19:00:00 9.6 2 Este 5 Noroeste 0 -- -- 85
2020-11-11 18:00:00 12.6 5 Noroeste 17 Oeste 0 -- -- 73
2020-11-11 17:00:00 14.1 10 Oeste 26 Oeste 0 -- -- 70
2020-11-11 16:00:00 15.4 17 Oeste 33 Oeste 0 -- -- 64
2020-11-11 15:00:00 16.4 20 Oeste 34 Oeste 0 -- -- 59
2020-11-11 14:00:00 16.1 14 Sudoeste 36 Sudoeste 0 -- -- 61
2020-11-11 13:00:00 15.8 15 Oeste 29 Oeste 0 -- -- 62
2020-11-11 12:00:00 12 8 Oeste 23 Oeste 0 -- -- 83
2020-11-11 11:00:00 6.8 2 Sudeste 5 Sudeste 0 -- -- 100
2020-11-11 10:00:00 2.4 0 Calma 3 Este 0 -- -- 100
2020-11-11 09:00:00 2.2 0 Calma 3 Norte 0 -- -- 99
2020-11-11 08:00:00 2.3 0 Calma 3 Nordeste 0 -- -- 99
2020-11-11 07:00:00 2.8 2 Este 4 Este 0 -- -- 99
2020-11-11 06:00:00 3 0 Calma 5 Norte 0 -- -- 99
2020-11-11 05:00:00 3.3 2 Nordeste 6 Nordeste 0 -- -- 99
2020-11-11 04:00:00 3.5 3 Nordeste 8 Nordeste 0 -- -- 98
2020-11-11 03:00:00 4 0 Calma 6 Este 0 -- -- 98
2020-11-11 02:00:00 4.5 2 Este 7 Nordeste 0 -- -- 98
2020-11-11 01:00:00 4.4 0 Calma 6 Este 0 -- -- 97
2020-11-11 00:00:00 5.1 2 Este 6 Este 0 -- -- 96
2020-11-10 23:00:00 5.6 2 Este 6 Este 0 -- -- 96
2020-11-10 22:00:00 6.4 0 Calma 2 Sudoeste 0 -- -- 94
2020-11-10 21:00:00 7.7 2 Sudoeste 5 Sudoeste 0 -- -- 91
2020-11-10 20:00:00 9.1 3 Sudeste 14 Este 0 -- -- 88
2020-11-10 19:00:00 11.3 4 Este 23 Nordeste 0 -- -- 81
2020-11-10 18:00:00 12.3 6 Este 23 Nordeste 0 -- -- 76
2020-11-10 17:00:00 13.2 16 Nordeste 30 Nordeste 0 -- -- 72
2020-11-10 16:00:00 14.2 21 Nordeste 30 Nordeste 0 -- -- 68
2020-11-10 15:00:00 15 18 Nordeste 28 Nordeste 0 -- -- 65
2020-11-10 14:00:00 14.8 20 Nordeste 33 Nordeste 0 -- -- 63
2020-11-10 13:00:00 14.7 16 Nordeste 29 Nordeste 0 -- -- 65
2020-11-10 12:00:00 13.6 22 Nordeste 34 Nordeste 0 -- -- 73
2020-11-10 11:00:00 11.1 2 Este 12 Este 0 -- -- 100
2020-11-10 10:00:00 6.5 0 Calma 5 Este 0 -- -- 100
2020-11-10 09:00:00 4 2 Nordeste 5 Sudeste 0 -- -- 100
2020-11-10 08:00:00 3.4 0 Calma 6 Noroeste 0.2 -- -- 99
2020-11-10 07:00:00 4 0 Calma 4 Norte 0 -- -- 99
2020-11-10 06:00:00 4.3 0 Calma 3 Noroeste 0 -- -- 99
2020-11-10 05:00:00 4.6 2 Norte 8 Nordeste 0 -- -- 99
2020-11-10 04:00:00 4.9 3 Nordeste 17 Nordeste 0 -- -- 98
2020-11-10 03:00:00 4.8 3 Este 13 Nordeste 0 -- -- 98
2020-11-10 02:00:00 4.5 0 Calma 5 Nordeste 0 -- -- 98
2020-11-10 01:00:00 4.7 0 Calma 4 Nordeste 0 -- -- 99
2020-11-10 00:00:00 4.8 0 Calma 4 Este 0 -- -- 98
2020-11-09 23:00:00 5.5 0 Calma 2 Nordeste 0 -- -- 97
2020-11-09 22:00:00 5.8 0 Calma 4 Este 0 -- -- 98
2020-11-09 21:00:00 6.4 0 Calma 6 Sudeste 0 -- -- 97
2020-11-09 20:00:00 7.1 3 Este 5 Nordeste 0 -- -- 96
2020-11-09 19:00:00 8.6 0 Calma 4 Este 0 -- -- 92
2020-11-09 18:00:00 10.6 0 Calma 8 Noroeste 0 -- -- 87
2020-11-09 17:00:00 13.2 4 Noroeste 8 Oeste 0 -- -- 79
2020-11-09 16:00:00 14 0 Calma 8 Oeste 0 -- -- 77
2020-11-09 15:00:00 12.7 4 Sur 12 Sudoeste 0 -- -- 82
2020-11-09 14:00:00 13 4 Sudoeste 12 Sudoeste 0 -- -- 81
2020-11-09 13:00:00 12.2 2 Sur 6 Oeste 0 -- -- 90
2020-11-09 12:00:00 10.8 0 Calma 4 Norte 0 -- -- 95
2020-11-09 11:00:00 10 0 Calma 4 Nordeste 0 -- -- 99
2020-11-09 10:00:00 8.5 0 Calma 3 Sudeste 0 -- -- 99
2020-11-09 09:00:00 7.5 0 Calma 4 Este 0 -- -- 99
2020-11-09 08:00:00 6.7 0 Calma 6 Este 0 -- -- 99
2020-11-09 07:00:00 6.6 2 Este 6 Este 0 -- -- 99
2020-11-09 06:00:00 6.5 3 Este 5 Este 0 -- -- 99
2020-11-09 05:00:00 5.9 2 Este 7 Este 0 -- -- 99
2020-11-09 04:00:00 5.7 0 Calma 5 Este 0 -- -- 98
2020-11-09 03:00:00 5.5 3 Este 5 Nordeste 0 -- -- 99
2020-11-09 02:00:00 5.1 2 Nordeste 5 Sur 0 -- -- 98
2020-11-09 01:00:00 5.4 0 Calma 6 Nordeste 0 -- -- 98
2020-11-09 00:00:00 5.4 2 Este 5 Este 0 -- -- 97
2020-11-08 23:00:00 5.6 0 Calma 5 Este 0 -- -- 97
2020-11-08 22:00:00 6.5 0 Calma 5 Este 0 -- -- 96
2020-11-08 21:00:00 7 4 Sudeste 6 Nordeste 0 -- -- 95
2020-11-08 20:00:00 8.1 0 Calma 8 Este 0 -- -- 91
2020-11-08 19:00:00 9.6 3 Sudoeste 6 Oeste 0 -- -- 87
2020-11-08 18:00:00 11.5 2 Sur 18 Noroeste 0 -- -- 80
2020-11-08 17:00:00 13.3 7 Oeste 23 Sur 0 -- -- 71
2020-11-08 16:00:00 14.9 9 Oeste 33 Sudoeste 0 -- -- 66
2020-11-08 15:00:00 14.4 11 Sudoeste 26 Oeste 0 -- -- 67
2020-11-08 14:00:00 14.1 13 Sudoeste 39 Sudoeste 0 -- -- 69
2020-11-08 13:00:00 13.9 22 Oeste 40 Oeste 0 -- -- 74
2020-11-08 12:00:00 14.9 12 Oeste 23 Oeste 0 -- -- 76
2020-11-08 11:00:00 12 0 Calma 5 Sur 0 -- -- 100
2020-11-08 10:00:00 8.3 0 Calma 4 Este 0 -- -- 99
2020-11-08 09:00:00 7.4 2 Este 6 Este 0 -- -- 98
2020-11-08 08:00:00 8 0 Calma 5 Este 0 -- -- 98
2020-11-08 07:00:00 8.8 0 Calma 4 Nordeste 0 -- -- 98
2020-11-08 06:00:00 8.9 3 Este 5 Nordeste 0 -- -- 98
2020-11-08 05:00:00 8.8 0 Calma 4 Noroeste 0 -- -- 97
2020-11-08 04:00:00 9.9 0 Calma 4 Nordeste 0 -- -- 97
2020-11-08 03:00:00 9.9 0 Calma 4 Norte 0 -- -- 97
2020-11-08 02:00:00 10.1 3 Este 6 Este 0 -- -- 96
2020-11-08 01:00:00 10.4 3 Sur 13 Oeste 0 -- -- 94
2020-11-08 00:00:00 10.7 6 Oeste 12 Sudoeste 0 -- -- 95
2020-11-07 23:00:00 10.9 4 Este 8 Oeste 0 -- -- 94
2020-11-07 22:00:00 11.8 7 Oeste 22 Sur 0 -- -- 90
2020-11-07 21:00:00 12 9 Oeste 24 Sudoeste 0 -- -- 92
2020-11-07 20:00:00 11.2 3 Este 17 Sudeste 7 -- -- 95
2020-11-07 19:00:00 11.7 0 Calma 22 Oeste 2.6 -- -- 93
2020-11-07 18:00:00 12.4 11 Oeste 31 Sudoeste 0.8 -- -- 87
2020-11-07 17:00:00 12.9 12 Oeste 35 Sudoeste 0 -- -- 83
2020-11-07 16:00:00 12.9 19 Oeste 39 Sudoeste 0 -- -- 83
2020-11-07 15:00:00 13.3 19 Sudoeste 37 Sudoeste 0 -- -- 80
2020-11-07 14:00:00 13 19 Sudoeste 31 Sudoeste 0 -- -- 82
2020-11-07 13:00:00 12.6 8 Oeste 16 Oeste 0 -- -- 88
2020-11-07 12:00:00 11.9 2 Sudeste 29 Sur 4.6 -- -- 92
2020-11-07 11:00:00 12.3 11 Oeste 33 Oeste 7.4 -- -- 88
2020-11-07 10:00:00 12.1 10 Sudoeste 21 Sudoeste 5 -- -- 93
2020-11-07 09:00:00 12.5 11 Sudoeste 62 Oeste 11.6 -- -- 89
2020-11-07 08:00:00 16.6 20 Oeste 43 Oeste 0.2 -- -- 67
2020-11-07 07:00:00 15.1 9 Sudeste 32 Este 0 -- -- 66
2020-11-07 06:00:00 14.1 5 Este 10 Norte 0 -- -- 74
2020-11-07 05:00:00 15.4 2 Nordeste 33 Sudoeste 0 -- -- 67
2020-11-07 04:00:00 16.5 14 Oeste 41 Oeste 0 -- -- 63
2020-11-07 03:00:00 16.7 23 Oeste 55 Sudoeste 0 -- -- 64
2020-11-07 02:00:00 16.8 28 Sudoeste 60 Sudoeste 0 -- -- 64
2020-11-07 01:00:00 16.8 35 Oeste 71 Sudoeste 0 -- -- 64
2020-11-07 00:00:00 16.9 38 Sudoeste 73 Sudoeste 0 -- -- 64
2020-11-06 23:00:00 16.8 27 Sudoeste 57 Sudoeste 0 -- -- 64
2020-11-06 22:00:00 16.8 28 Sudoeste 56 Sudoeste 0 -- -- 63
2020-11-06 21:00:00 16.8 17 Oeste 39 Sudoeste 0 -- -- 63
2020-11-06 20:00:00 16.9 17 Oeste 55 Sudoeste 0 -- -- 62
2020-11-06 19:00:00 16.9 27 Oeste 59 Sudoeste 0 -- -- 62
2020-11-06 18:00:00 16.9 23 Oeste 62 Sudoeste 0 -- -- 62
2020-11-06 17:00:00 16.8 28 Sudoeste 54 Sudoeste 0 -- -- 64
2020-11-06 16:00:00 17.3 22 Sudoeste 66 Oeste 0 -- -- 61
2020-11-06 15:00:00 17.9 29 Sudoeste 55 Oeste 0 -- -- 59
2020-11-06 14:00:00 18 21 Sudoeste 42 Sudoeste 0 -- -- 61
2020-11-06 13:00:00 17.5 13 Noroeste 34 Oeste 0 -- -- 65
2020-11-06 12:00:00 17.3 14 Oeste 62 Sudoeste 0 -- -- 65
2020-11-06 11:00:00 16.9 27 Sudoeste 46 Sudoeste 0 -- -- 66
2020-11-06 10:00:00 16 15 Oeste 39 Sudoeste 0 -- -- 68
2020-11-06 09:00:00 15.5 18 Oeste 37 Sudoeste 0 -- -- 69
2020-11-06 08:00:00 14.9 14 Oeste 33 Sudoeste 0 -- -- 69
2020-11-06 07:00:00 14.6 13 Oeste 41 Sudoeste 0 -- -- 69
2020-11-06 06:00:00 14.7 24 Sudoeste 39 Sudoeste 0 -- -- 68
2020-11-06 05:00:00 14.1 6 Oeste 28 Oeste 0 -- -- 69
2020-11-06 04:00:00 13.8 11 Oeste 23 Oeste 0 -- -- 70
2020-11-06 03:00:00 14.3 11 Oeste 30 Oeste 0 -- -- 69
2020-11-06 02:00:00 14.3 19 Oeste 44 Oeste 0 -- -- 70
2020-11-06 01:00:00 11.4 6 Noroeste 17 Oeste 0 -- -- 84
2020-11-06 00:00:00 7.7 0 Calma 8 Norte 0 -- -- 96
2020-11-05 23:00:00 7.4 0 Calma 9 Este 0 -- -- 95
2020-11-05 22:00:00 7.4 0 Calma 5 Este 0 -- -- 94
2020-11-05 21:00:00 7.7 2 Este 4 Este 0 -- -- 94
2020-11-05 20:00:00 8 0 Calma 5 Nordeste 0 -- -- 92
2020-11-05 19:00:00 9.2 0 Calma 4 Oeste 0 -- -- 88
2020-11-05 18:00:00 10.6 2 Noroeste 9 Oeste 0 -- -- 83
2020-11-05 17:00:00 13.3 6 Sudoeste 16 Sudoeste 0 -- -- 71
2020-11-05 16:00:00 14.6 10 Oeste 23 Sudoeste 0 -- -- 65
2020-11-05 15:00:00 15 9 Sudoeste 20 Sudoeste 0 -- -- 64
2020-11-05 14:00:00 14 10 Sudoeste 18 Oeste 0 -- -- 65
2020-11-05 13:00:00 13.7 8 Sudoeste 16 Sudoeste 0 -- -- 68
2020-11-05 12:00:00 13.8 4 Sur 8 Sudeste 0 -- -- 68
2020-11-05 11:00:00 9.9 3 Sudeste 7 Sudeste 0 -- -- 76
2020-11-05 10:00:00 4.4 0 Calma 5 Este 0 -- -- 97
2020-11-05 09:00:00 3.1 2 Este 9 Este 0 -- -- 95
2020-11-05 08:00:00 3.1 0 Calma 4 Este 0 -- -- 94
2020-11-05 07:00:00 3.5 0 Calma 5 Nordeste 0 -- -- 94
2020-11-05 06:00:00 4.2 0 Calma 11 Nordeste 0 -- -- 92
2020-11-05 05:00:00 5.3 0 Calma 5 Nordeste 0 -- -- 88
2020-11-05 04:00:00 5.9 0 Calma 3 Sudoeste 0 -- -- 88
2020-11-05 03:00:00 6.1 0 Calma 10 Nordeste 0 -- -- 86
2020-11-05 02:00:00 6.1 0 Calma 13 Nordeste 0 -- -- 85
2020-11-05 01:00:00 6.1 7 Nordeste 14 Nordeste 0 -- -- 84
2020-11-05 00:00:00 6.1 10 Este 20 Nordeste 0 -- -- 83
2020-11-04 23:00:00 6.7 5 Este 21 Nordeste 0 -- -- 80
2020-11-04 22:00:00 6.7 8 Este 26 Nordeste 0 -- -- 80
2020-11-04 21:00:00 6.9 8 Este 23 Nordeste 0 -- -- 81
2020-11-04 20:00:00 7 12 Este 34 Nordeste 0 -- -- 81
2020-11-04 19:00:00 7 10 Este 30 Nordeste 0 -- -- 82
2020-11-04 18:00:00 7 20 Nordeste 28 Nordeste 0 -- -- 82
2020-11-04 17:00:00 7.2 17 Nordeste 31 Nordeste 0 -- -- 80
2020-11-04 16:00:00 7.1 14 Nordeste 32 Nordeste 0 -- -- 80
2020-11-04 15:00:00 7.5 13 Nordeste 27 Nordeste 0 -- -- 75
2020-11-04 14:00:00 7.3 11 Nordeste 30 Nordeste 0 -- -- 74
2020-11-04 13:00:00 7.2 21 Nordeste 32 Nordeste 0 -- -- 72
2020-11-04 12:00:00 8 19 Nordeste 33 Nordeste 0 -- -- 66
2020-11-04 11:00:00 7.4 23 Nordeste 39 Nordeste 0 -- -- 68
2020-11-04 10:00:00 7.1 29 Nordeste 43 Nordeste 0 -- -- 69
2020-11-04 09:00:00 6.6 18 Nordeste 34 Nordeste 0 -- -- 72
2020-11-04 08:00:00 6.3 20 Nordeste 38 Nordeste 0 -- -- 72
2020-11-04 07:00:00 6.1 12 Este 32 Este 0 -- -- 75
2020-11-04 06:00:00 6.3 14 Nordeste 46 Nordeste 0 -- -- 75
2020-11-04 05:00:00 6.6 26 Nordeste 42 Nordeste 0 -- -- 76
2020-11-04 04:00:00 6.7 15 Nordeste 34 Nordeste 0 -- -- 78
2020-11-04 03:00:00 6.7 8 Nordeste 27 Nordeste 0 -- -- 78
2020-11-04 02:00:00 6.5 10 Nordeste 29 Nordeste 0 -- -- 79
2020-11-04 01:00:00 6.7 12 Nordeste 33 Nordeste 0 -- -- 80
2020-11-04 00:00:00 6.8 10 Nordeste 34 Nordeste 0 -- -- 79
2020-11-03 23:00:00 7.3 15 Nordeste 33 Nordeste 0 -- -- 79
2020-11-03 22:00:00 7.1 8 Nordeste 28 Nordeste 0 -- -- 79
2020-11-03 21:00:00 7.7 11 Norte 35 Nordeste 0 -- -- 82
2020-11-03 20:00:00 7.9 17 Nordeste 28 Norte 0 -- -- 80
2020-11-03 19:00:00 8.4 12 Nordeste 31 Norte 0 -- -- 84
2020-11-03 18:00:00 8.8 15 Nordeste 30 Nordeste 0 -- -- 84
2020-11-03 17:00:00 9.6 22 Nordeste 36 Nordeste 0 -- -- 79
2020-11-03 16:00:00 10.1 16 Nordeste 36 Norte 0 -- -- 78
2020-11-03 15:00:00 11 17 Nordeste 32 Este 0 -- -- 69
2020-11-03 14:00:00 10.6 20 Nordeste 36 Este 0 -- -- 74
2020-11-03 13:00:00 10.8 14 Nordeste 31 Nordeste 0 -- -- 78
2020-11-03 12:00:00 10.5 13 Nordeste 30 Nordeste 0 -- -- 80
2020-11-03 11:00:00 9.8 8 Nordeste 28 Nordeste 0 -- -- 82
2020-11-03 10:00:00 9.7 10 Nordeste 33 Nordeste 0 -- -- 81
2020-11-03 09:00:00 9.4 12 Este 30 Nordeste 0 -- -- 83
2020-11-03 08:00:00 9.8 14 Nordeste 29 Nordeste 0.2 -- -- 84
2020-11-03 07:00:00 10.4 10 Nordeste 28 Este 0 -- -- 84
2020-11-03 06:00:00 11 10 Nordeste 30 Nordeste 0 -- -- 81
2020-11-03 05:00:00 11.5 9 Este 25 Nordeste 0 -- -- 80
2020-11-03 04:00:00 11.9 9 Este 28 Este 0 -- -- 80
2020-11-03 03:00:00 11.8 8 Este 25 Nordeste 0 -- -- 81
2020-11-03 02:00:00 11.7 6 Este 21 Nordeste 0 -- -- 82
2020-11-03 01:00:00 11.8 10 Este 25 Nordeste 0 -- -- 82
2020-11-03 00:00:00 12.1 7 Este 31 Nordeste 0 -- -- 81
2020-11-02 23:00:00 12.7 8 Nordeste 24 Nordeste 0 -- -- 83
2020-11-02 22:00:00 13.1 11 Nordeste 26 Nordeste 0 -- -- 83
2020-11-02 21:00:00 13.3 13 Este 32 Este 0 -- -- 83
2020-11-02 20:00:00 14 13 Este 31 Este 0 -- -- 81
2020-11-02 19:00:00 14.9 10 Este 37 Este 0 -- -- 84
2020-11-02 18:00:00 16.1 14 Este 39 Nordeste 0 -- -- 79
2020-11-02 17:00:00 18.2 4 Oeste 12 Oeste 0 -- -- 70
2020-11-02 16:00:00 20.5 5 Sudoeste 20 Sudoeste 0 -- -- 57
2020-11-02 15:00:00 20.6 15 Sudoeste 28 Sudoeste 0 -- -- 58
2020-11-02 14:00:00 20.6 16 Sudoeste 30 Oeste 0 -- -- 59
2020-11-02 13:00:00 20 21 Oeste 29 Oeste 0 -- -- 58
2020-11-02 12:00:00 17.3 10 Oeste 22 Oeste 0 -- -- 70
2020-11-02 11:00:00 12.9 0 Calma 4 Sudoeste 0 -- -- 100
2020-11-02 10:00:00 10.8 0 Calma 3 Sudoeste 0 -- -- 100
2020-11-02 09:00:00 8.9 0 Calma 4 Oeste 0 -- -- 100
2020-11-02 08:00:00 7.9 2 Nordeste 6 Este 0 -- -- 99
2020-11-02 07:00:00 7.6 0 Calma 8 Nordeste 0 -- -- 99
2020-11-02 06:00:00 7.4 2 Este 5 Este 0 -- -- 99
2020-11-02 05:00:00 7.5 0 Calma 5 Este 0 -- -- 99
2020-11-02 04:00:00 7.3 0 Calma 5 Nordeste 0 -- -- 98
2020-11-02 03:00:00 7.9 2 Este 5 Este 0 -- -- 98
2020-11-02 02:00:00 8.2 0 Calma 6 Este 0 -- -- 98
2020-11-02 01:00:00 8.3 0 Calma 6 Este 0 -- -- 98
2020-11-02 00:00:00 8.5 3 Este 6 Este 0 -- -- 97
2020-11-01 23:00:00 8.8 2 Nordeste 4 Nordeste 0 -- -- 96
2020-11-01 22:00:00 9.6 0 Calma 5 Este 0 -- -- 96
2020-11-01 21:00:00 10.4 0 Calma 4 Nordeste 0 -- -- 95
2020-11-01 20:00:00 11.5 3 Nordeste 6 Este 0 -- -- 92
2020-11-01 19:00:00 13 2 Este 4 Este 0 -- -- 87
2020-11-01 18:00:00 15.6 0 Calma 5 Oeste 0 -- -- 80
2020-11-01 17:00:00 18.1 3 Sudoeste 12 Oeste 0 -- -- 71
2020-11-01 16:00:00 20.3 10 Oeste 18 Oeste 0 -- -- 61
2020-11-01 15:00:00 20.3 12 Oeste 21 Oeste 0 -- -- 60
2020-11-01 14:00:00 19.7 14 Oeste 22 Oeste 0 -- -- 61
2020-11-01 13:00:00 19.2 14 Oeste 22 Oeste 0 -- -- 63
2020-11-01 12:00:00 17.6 6 Sudoeste 11 Oeste 0 -- -- 70
2020-11-01 11:00:00 13 2 Sudoeste 6 Sudoeste 0 -- -- 98
2020-11-01 10:00:00 8 0 Calma 4 Nordeste 0 -- -- 100
2020-11-01 09:00:00 5.9 2 Este 7 Este 0 -- -- 99
2020-11-01 08:00:00 4.8 0 Calma 4 Nordeste 0 -- -- 99
2020-11-01 07:00:00 4.7 0 Calma 4 Nordeste 0 -- -- 98
2020-11-01 06:00:00 4.4 0 Calma 5 Nordeste 0 -- -- 99
2020-11-01 05:00:00 4.5 0 Calma 6 Este 0 -- -- 98
2020-11-01 04:00:00 4.7 2 Este 5 Sudeste 0 -- -- 98
2020-11-01 03:00:00 4.6 0 Calma 8 Sudeste 0 -- -- 97
2020-11-01 02:00:00 5 0 Calma 5 Este 0 -- -- 97
2020-11-01 01:00:00 5.6 0 Calma 5 Este 0 -- -- 96
2020-11-01 00:00:00 6.2 3 Este 8 Este 0 -- -- 95
2020-10-31 23:00:00 6.7 3 Este 8 Este 0 -- -- 94
2020-10-31 22:00:00 7.1 5 Este 7 Este 0 -- -- 94
2020-10-31 21:00:00 7.9 2 Nordeste 7 Este 0 -- -- 93
2020-10-31 20:00:00 9.1 5 Este 8 Este 0 -- -- 91
2020-10-31 19:00:00 10.1 2 Nordeste 6 Este 0 -- -- 85
2020-10-31 18:00:00 12.8 3 Este 9 Norte 0 -- -- 79
2020-10-31 17:00:00 16.6 3 Sudoeste 16 Oeste 0 -- -- 62
2020-10-31 16:00:00 20.6 8 Sudoeste 20 Oeste 0 -- -- 50
2020-10-31 15:00:00 21.4 9 Oeste 20 Oeste 0 -- -- 43
2020-10-31 14:00:00 21.3 9 Sudoeste 14 Sudoeste 0 -- -- 48
2020-10-31 13:00:00 19 4 Sur 9 Sur 0 -- -- 60
2020-10-31 12:00:00 15 3 Sudoeste 6 Sur 0 -- -- 75
2020-10-31 11:00:00 9.9 2 Sudeste 6 Sudeste 0 -- -- 100
2020-10-31 10:00:00 5.6 0 Calma 5 Este 0 -- -- 100
2020-10-31 09:00:00 2.4 4 Nordeste 7 Este 0 -- -- 99
2020-10-31 08:00:00 2.2 2 Sur 9 Este 0 -- -- 99
2020-10-31 07:00:00 2 3 Este 5 Este 0 -- -- 99
2020-10-31 06:00:00 2.3 0 Calma 5 Este 0 -- -- 99
2020-10-31 05:00:00 2.9 3 Este 5 Este 0 -- -- 100
2020-10-31 04:00:00 2.9 0 Calma 4 Este 0 -- -- 99
2020-10-31 03:00:00 3.5 0 Calma 6 Este 0 -- -- 98
2020-10-31 02:00:00 3.6 3 Nordeste 6 Este 0 -- -- 98
2020-10-31 01:00:00 4.4 3 Este 5 Este 0 -- -- 98
2020-10-31 00:00:00 5.3 3 Este 5 Este 0 -- -- 97
2020-10-30 23:00:00 5.7 0 Calma 5 Este 0 -- -- 97
2020-10-30 22:00:00 6.4 0 Calma 6 Este 0 -- -- 96
2020-10-30 21:00:00 7.6 3 Este 6 Este 0 -- -- 95
2020-10-30 20:00:00 8.7 0 Calma 5 Este 0 -- -- 94
2020-10-30 19:00:00 10.4 3 Este 6 Este 0 -- -- 89
2020-10-30 18:00:00 13.1 0 Calma 7 Oeste 0 -- -- 79
2020-10-30 17:00:00 16.7 5 Oeste 12 Sudoeste 0 -- -- 67
2020-10-30 16:00:00 20.2 7 Sudoeste 22 Oeste 0 -- -- 56
2020-10-30 15:00:00 20.1 14 Oeste 20 Oeste 0 -- -- 53
2020-10-30 14:00:00 19.5 9 Sudoeste 17 Sudoeste 0 -- -- 57
2020-10-30 13:00:00 18.1 6 Sudoeste 12 Sudoeste 0 -- -- 61
2020-10-30 12:00:00 13.9 3 Sudoeste 6 Sudeste 0 -- -- 78
2020-10-30 11:00:00 9.1 2 Sur 5 Este 0 -- -- 100
2020-10-30 10:00:00 4.8 2 Este 6 Este 0 -- -- 100
2020-10-30 09:00:00 3.2 3 Este 9 Este 0 -- -- 100
2020-10-30 08:00:00 2.9 2 Nordeste 9 Este 0 -- -- 99
2020-10-30 07:00:00 3.1 3 Este 9 Nordeste 0 -- -- 99
2020-10-30 06:00:00 3.5 4 Nordeste 10 Nordeste 0 -- -- 99
2020-10-30 05:00:00 3.4 3 Este 8 Este 0 -- -- 99
2020-10-30 04:00:00 3.7 2 Este 5 Sudeste 0 -- -- 99
2020-10-30 03:00:00 4.1 0 Calma 6 Sudeste 0 -- -- 98
2020-10-30 02:00:00 4.2 3 Este 7 Este 0 -- -- 98
2020-10-30 01:00:00 4.9 3 Este 6 Este 0 -- -- 97
2020-10-30 00:00:00 5.5 3 Este 7 Este 0 -- -- 98
2020-10-29 23:00:00 6 2 Este 6 Este 0 -- -- 97
2020-10-29 22:00:00 6.6 3 Este 5 Este 0 -- -- 96
2020-10-29 21:00:00 7.3 3 Este 5 Este 0 -- -- 96
2020-10-29 20:00:00 8.2 0 Calma 4 Este 0 -- -- 94
2020-10-29 19:00:00 9.8 0 Calma 4 Este 0 -- -- 90
2020-10-29 18:00:00 12.2 0 Calma 4 Noroeste 0 -- -- 84
2020-10-29 17:00:00 15.5 3 Oeste 8 Oeste 0 -- -- 70
2020-10-29 16:00:00 18.1 8 Oeste 15 Oeste 0 -- -- 59
2020-10-29 15:00:00 18.1 11 Oeste 17 Oeste 0 -- -- 57
2020-10-29 14:00:00 17.2 10 Sudoeste 20 Sudoeste 0 -- -- 60
2020-10-29 13:00:00 16.3 17 Oeste 23 Oeste 0 -- -- 61
2020-10-29 12:00:00 15.2 5 Sudoeste 9 Oeste 0 -- -- 71
2020-10-29 11:00:00 11 2 Sudeste 6 Sur 0 -- -- 84
2020-10-29 10:00:00 6.7 0 Calma 6 Este 0 -- -- 100
2020-10-29 09:00:00 4.8 2 Sudeste 5 Nordeste 0 -- -- 98
2020-10-29 08:00:00 4.5 0 Calma 12 Norte 0 -- -- 97
2020-10-29 07:00:00 4.8 2 Este 5 Este 0 -- -- 97
2020-10-29 06:00:00 5.7 0 Calma 6 Norte 0 -- -- 96
2020-10-29 05:00:00 6.3 0 Calma 6 Sudeste 0 -- -- 97
2020-10-29 04:00:00 6.3 0 Calma 7 Noroeste 0 -- -- 96
2020-10-29 03:00:00 6.5 3 Este 9 Oeste 0 -- -- 96
2020-10-29 02:00:00 6.2 0 Calma 11 Nordeste 0 -- -- 96
2020-10-29 01:00:00 6.3 0 Calma 5 Este 0 -- -- 96
2020-10-29 00:00:00 6.8 3 Este 6 Oeste 0 -- -- 95
2020-10-28 23:00:00 7.3 0 Calma 8 Oeste 0 -- -- 93
2020-10-28 22:00:00 8.7 2 Este 15 Nordeste 0 -- -- 90
2020-10-28 21:00:00 10.7 11 Nordeste 20 Nordeste 0 -- -- 85
2020-10-28 20:00:00 11.7 15 Este 24 Nordeste 0 -- -- 81
2020-10-28 19:00:00 12.1 12 Nordeste 25 Nordeste 0 -- -- 83
2020-10-28 18:00:00 12.1 8 Este 16 Nordeste 0 -- -- 89
2020-10-28 17:00:00 14 0 Calma 6 Noroeste 0 -- -- 81
2020-10-28 16:00:00 15.8 4 Sudoeste 15 Sudoeste 0 -- -- 74
2020-10-28 15:00:00 15 5 Oeste 15 Oeste 0 -- -- 77
2020-10-28 14:00:00 13.4 8 Oeste 13 Oeste 0 -- -- 86
2020-10-28 13:00:00 12.6 6 Sur 10 Sudoeste 0 -- -- 88
2020-10-28 12:00:00 12 4 Sur 12 Oeste 0 -- -- 90
2020-10-28 11:00:00 10.8 0 Calma 3 Oeste 0 -- -- 98
2020-10-28 10:00:00 10.1 0 Calma 3 Sur 0 -- -- 99
2020-10-28 09:00:00 9.4 0 Calma 2 Sudeste 0 -- -- 99
2020-10-28 08:00:00 8.9 0 Calma 4 Norte 0 -- -- 99
2020-10-28 07:00:00 8.9 2 Este 3 Este 0 -- -- 99
2020-10-28 06:00:00 8.9 0 Calma 2 Nordeste 0 -- -- 99
2020-10-28 05:00:00 8.8 0 Calma 3 Sudeste 0 -- -- 99
2020-10-28 04:00:00 8.8 0 Calma 5 Sudeste 0 -- -- 99
2020-10-28 03:00:00 8.8 0 Calma 3 Este 0 -- -- 98
2020-10-28 02:00:00 8.7 0 Calma 5 Oeste 0 -- -- 98
2020-10-28 01:00:00 8.7 3 Este 5 Nordeste 0 -- -- 98
2020-10-28 00:00:00 8.7 2 Sudeste 4 Sudeste 0 -- -- 98
2020-10-27 23:00:00 8.7 0 Calma 4 Este 0 -- -- 97
2020-10-27 22:00:00 8.8 0 Calma 3 Este 0.2 -- -- 97
2020-10-27 21:00:00 8.9 0 Calma 5 Este 0 -- -- 96
2020-10-27 20:00:00 8.9 3 Norte 5 Nordeste 0 -- -- 95
2020-10-27 19:00:00 9.3 3 Este 8 Noroeste 0.4 -- -- 93
2020-10-27 18:00:00 10.5 7 Oeste 17 Sudoeste 0 -- -- 81
2020-10-27 17:00:00 11.3 11 Sudoeste 17 Oeste 0 -- -- 74
2020-10-27 16:00:00 11.6 12 Oeste 22 Oeste 0 -- -- 71
2020-10-27 15:00:00 11.8 8 Oeste 19 Oeste 0 -- -- 71
2020-10-27 14:00:00 10.6 11 Oeste 19 Oeste 0 -- -- 73
2020-10-27 13:00:00 10.5 6 Noroeste 21 Oeste 0 -- -- 77
2020-10-27 12:00:00 9.4 5 Oeste 12 Oeste 0 -- -- 87
2020-10-27 11:00:00 7.8 2 Nordeste 5 Este 0 -- -- 99
2020-10-27 10:00:00 6.3 0 Calma 3 Oeste 0 -- -- 99
2020-10-27 09:00:00 5.7 0 Calma 3 Este 0 -- -- 100
2020-10-27 08:00:00 5 0 Calma 3 Este 0 -- -- 99
2020-10-27 07:00:00 5.1 3 Este 5 Este 0 -- -- 99
2020-10-27 06:00:00 5.1 0 Calma 4 Este 0.2 -- -- 99
2020-10-27 05:00:00 5 0 Calma 5 Este 0 -- -- 99
2020-10-27 04:00:00 4.8 0 Calma 4 Norte 0 -- -- 99
2020-10-27 03:00:00 4.7 0 Calma 3 Nordeste 0 -- -- 98
2020-10-27 02:00:00 5 0 Calma 4 Oeste 0 -- -- 98
2020-10-27 01:00:00 4.7 0 Calma 5 Sudeste 0 -- -- 98
2020-10-27 00:00:00 5 0 Calma 5 Norte 0 -- -- 98